Hassi-Messaoud, Algeria
Current Conditions -  °F | °C
As of 12:00 AM on Monday 22 Dec 2014 (Local Time) from DAUU Reporting Station
Few Clouds Few Clouds  
Wind Chill: 54°   Ceiling: Unl
Heat Index: 54°   Visibility: 6mi
Dew Point: 41°   Wind: 7mph
Humidity: 62%   Direction: 330°NNW
Pressure: 30.42"   Gusts: NA
Location:  31.68°N, 6.07°E
Report Text: DAUU 212300Z 33006KT 9999 FEW046 12/05 Q1030
Loading
Personal Weather Stations






























Interactive Weather Map New forecast layout! Learn more

10-Day Weather Forecast

Advertisements
Track Severe Weather on mobile